createdAt,value
2022-10-30T00:00:26.025Z,1010.15
2022-10-30T00:01:26.071Z,1010.17
2022-10-30T00:02:26.100Z,1010.14
2022-10-30T00:03:25.965Z,1010.15
2022-10-30T00:04:25.968Z,1010.15
2022-10-30T00:05:25.952Z,1010.17
2022-10-30T00:06:25.935Z,1010.24
2022-10-30T00:07:25.921Z,1010.25
2022-10-30T00:08:25.917Z,1010.24
2022-10-30T00:09:25.997Z,1010.25
2022-10-30T00:10:25.913Z,1010.27
2022-10-30T00:11:25.879Z,1010.23
2022-10-30T00:12:25.866Z,1010.26
2022-10-30T00:13:25.855Z,1010.30
2022-10-30T00:14:25.840Z,1010.32
2022-10-30T00:15:25.844Z,1010.27
2022-10-30T00:16:25.836Z,1010.26
2022-10-30T00:17:25.823Z,1010.31
2022-10-30T00:18:25.803Z,1010.31
2022-10-30T00:19:25.797Z,1010.32
2022-10-30T00:20:25.774Z,1010.34
2022-10-30T00:21:25.777Z,1010.35
2022-10-30T00:22:25.768Z,1010.35
2022-10-30T00:23:25.741Z,1010.37
2022-10-30T00:24:25.736Z,1010.35
2022-10-30T00:25:25.747Z,1010.36
2022-10-30T00:26:25.714Z,1010.34
2022-10-30T00:27:25.722Z,1010.38
2022-10-30T00:28:25.694Z,1010.40
2022-10-30T00:29:25.674Z,1010.47
2022-10-30T00:30:25.674Z,1010.43
2022-10-30T00:31:25.655Z,1010.45
2022-10-30T00:32:25.649Z,1010.44
2022-10-30T00:33:25.641Z,1010.49
2022-10-30T00:34:25.644Z,1010.44
2022-10-30T00:35:25.616Z,1010.40
2022-10-30T00:36:25.615Z,1010.43
2022-10-30T00:37:25.593Z,1010.39
2022-10-30T00:38:25.584Z,1010.42
2022-10-30T00:39:25.566Z,1010.40
2022-10-30T00:40:25.560Z,1010.43
2022-10-30T00:41:25.572Z,1010.40
2022-10-30T00:42:25.548Z,1010.41
2022-10-30T00:43:25.525Z,1010.35
2022-10-30T00:44:25.525Z,1010.36
2022-10-30T00:45:25.517Z,1010.33
2022-10-30T00:46:25.502Z,1010.38
2022-10-30T00:47:25.479Z,1010.39
2022-10-30T00:48:25.473Z,1010.41
2022-10-30T00:49:25.463Z,1010.37
2022-10-30T00:50:28.581Z,1010.37
2022-10-30T00:51:25.461Z,1010.37
2022-10-30T00:52:25.428Z,1010.34
2022-10-30T00:53:25.415Z,1010.39
2022-10-30T00:54:25.405Z,1010.36
2022-10-30T00:55:25.390Z,1010.34
2022-10-30T00:56:25.389Z,1010.32
2022-10-30T00:57:25.404Z,1010.33
2022-10-30T00:58:25.360Z,1010.30
2022-10-30T00:59:25.346Z,1010.33
2022-10-30T01:00:25.351Z,1010.27
2022-10-30T01:01:25.439Z,1010.28
2022-10-30T01:02:25.472Z,1010.26
2022-10-30T01:03:25.298Z,1010.29
2022-10-30T01:04:29.062Z,1010.27
2022-10-30T01:05:26.286Z,1010.31
2022-10-30T01:06:25.268Z,1010.30
2022-10-30T01:07:25.267Z,1010.28
2022-10-30T01:08:25.385Z,1010.29
2022-10-30T01:09:25.231Z,1010.30
2022-10-30T01:10:25.223Z,1010.32
2022-10-30T01:11:25.225Z,1010.27
2022-10-30T01:12:25.214Z,1010.27
2022-10-30T01:13:25.217Z,1010.24
2022-10-30T01:14:25.178Z,1010.28
2022-10-30T01:15:25.168Z,1010.26
2022-10-30T01:16:25.170Z,1010.31
2022-10-30T01:17:25.165Z,1010.26
2022-10-30T01:18:25.142Z,1010.25
2022-10-30T01:19:25.162Z,1010.29
2022-10-30T01:20:25.121Z,1010.24
2022-10-30T01:21:25.109Z,1010.25
2022-10-30T01:22:25.109Z,1010.31
2022-10-30T01:23:25.089Z,1010.35
2022-10-30T01:24:25.069Z,1010.34
2022-10-30T01:25:25.055Z,1010.29
2022-10-30T01:26:25.052Z,1010.38
2022-10-30T01:27:25.043Z,1010.38
2022-10-30T01:28:25.040Z,1010.34
2022-10-30T01:29:25.040Z,1010.40
2022-10-30T01:30:25.014Z,1010.38
2022-10-30T01:31:24.995Z,1010.34
2022-10-30T01:32:24.980Z,1010.36
2022-10-30T01:33:24.974Z,1010.37
2022-10-30T01:34:24.962Z,1010.39
2022-10-30T01:35:24.965Z,1010.36
2022-10-30T01:36:24.965Z,1010.36
2022-10-30T01:37:24.939Z,1010.35
2022-10-30T01:38:24.918Z,1010.35
2022-10-30T01:39:24.910Z,1010.35
2022-10-30T01:40:24.903Z,1010.42
2022-10-30T01:41:24.891Z,1010.40
2022-10-30T01:42:24.866Z,1010.36
2022-10-30T01:43:24.870Z,1010.37
2022-10-30T01:44:24.864Z,1010.36
2022-10-30T01:45:24.859Z,1010.40
2022-10-30T01:46:24.833Z,1010.36
2022-10-30T01:47:24.823Z,1010.39
2022-10-30T01:48:24.813Z,1010.41
2022-10-30T01:49:24.840Z,1010.38
2022-10-30T01:50:24.784Z,1010.40
2022-10-30T01:51:24.782Z,1010.40
2022-10-30T01:52:24.770Z,1010.35
2022-10-30T01:53:24.753Z,1010.31
2022-10-30T01:54:24.733Z,1010.32
2022-10-30T01:55:24.729Z,1010.33
2022-10-30T01:56:24.774Z,1010.34
2022-10-30T01:57:24.707Z,1010.32
2022-10-30T01:58:24.703Z,1010.30
2022-10-30T01:59:24.676Z,1010.24
2022-10-30T02:00:24.664Z,1010.25
2022-10-30T02:01:24.850Z,1010.27
2022-10-30T02:02:24.833Z,1010.35
2022-10-30T02:03:24.652Z,1010.33
2022-10-30T02:04:24.636Z,1010.29
2022-10-30T02:05:24.643Z,1010.26
2022-10-30T02:06:24.606Z,1010.21
2022-10-30T02:07:24.589Z,1010.20
2022-10-30T02:08:24.586Z,1010.17
2022-10-30T02:09:24.587Z,1010.19
2022-10-30T02:10:24.559Z,1010.21
2022-10-30T02:11:24.546Z,1010.22
2022-10-30T02:12:24.535Z,1010.25
2022-10-30T02:13:24.521Z,1010.27
2022-10-30T02:14:24.533Z,1010.23
2022-10-30T02:15:24.509Z,1010.22
2022-10-30T02:16:24.505Z,1010.25
2022-10-30T02:17:24.499Z,1010.26
2022-10-30T02:18:24.474Z,1010.26
2022-10-30T02:19:24.455Z,1010.28
2022-10-30T02:20:24.456Z,1010.24
2022-10-30T02:21:24.442Z,1010.22
2022-10-30T02:22:24.536Z,1010.21
2022-10-30T02:23:24.412Z,1010.19
2022-10-30T02:24:24.414Z,1010.18
2022-10-30T02:25:24.391Z,1010.18
2022-10-30T02:26:24.385Z,1010.16
2022-10-30T02:27:24.402Z,1010.18
2022-10-30T02:28:24.355Z,1010.19
2022-10-30T02:29:24.356Z,1010.22
2022-10-30T02:30:24.336Z,1010.22
2022-10-30T02:31:24.337Z,1010.21
2022-10-30T02:32:24.317Z,1010.21
2022-10-30T02:33:24.353Z,1010.15
2022-10-30T02:34:24.291Z,1010.19
2022-10-30T02:35:24.290Z,1010.15
2022-10-30T02:36:24.271Z,1010.18
2022-10-30T02:37:24.258Z,1010.15
2022-10-30T02:38:24.262Z,1010.19
2022-10-30T02:39:24.250Z,1010.19
2022-10-30T02:40:24.227Z,1010.13
2022-10-30T02:41:24.213Z,1010.16
2022-10-30T02:42:24.199Z,1010.09
2022-10-30T02:43:24.186Z,1010.12
2022-10-30T02:44:24.190Z,1010.10
2022-10-30T02:45:24.168Z,1010.08
2022-10-30T02:46:24.170Z,1010.11
2022-10-30T02:47:24.149Z,1010.09
2022-10-30T02:48:24.138Z,1010.07
2022-10-30T02:49:24.153Z,1010.10
2022-10-30T02:50:24.112Z,1010.06
2022-10-30T02:51:24.123Z,1010.06
2022-10-30T02:52:24.097Z,1010.05
2022-10-30T02:53:24.089Z,1010.09
2022-10-30T02:54:24.068Z,1010.09
2022-10-30T02:55:24.054Z,1010.09
2022-10-30T02:56:24.053Z,1010.10
2022-10-30T02:57:24.045Z,1010.13
2022-10-30T02:58:24.028Z,1010.11
2022-10-30T02:59:24.018Z,1010.06
2022-10-30T03:00:23.998Z,1010.07
2022-10-30T03:01:24.151Z,1010.06
2022-10-30T03:02:24.032Z,1010.08
2022-10-30T03:03:24.325Z,1010.06
2022-10-30T03:04:23.968Z,1010.06
2022-10-30T03:05:23.972Z,1010.11
2022-10-30T03:06:23.929Z,1010.08
2022-10-30T03:07:23.956Z,1010.10
2022-10-30T03:08:23.912Z,1010.12
2022-10-30T03:09:23.901Z,1010.12
2022-10-30T03:10:23.888Z,1010.15
2022-10-30T03:11:23.906Z,1010.17
2022-10-30T03:12:23.871Z,1010.18
2022-10-30T03:13:23.853Z,1010.14
2022-10-30T03:14:23.856Z,1010.15
2022-10-30T03:15:23.830Z,1010.15
2022-10-30T03:16:23.825Z,1010.17
2022-10-30T03:17:23.819Z,1010.20
2022-10-30T03:18:23.803Z,1010.17
2022-10-30T03:19:23.788Z,1010.15
2022-10-30T03:20:23.772Z,1010.20
2022-10-30T03:21:23.796Z,1010.11
2022-10-30T03:22:23.767Z,1010.14
2022-10-30T03:23:23.739Z,1010.13
2022-10-30T03:24:23.736Z,1010.13
2022-10-30T03:25:24.116Z,1010.12
2022-10-30T03:26:23.718Z,1010.13
2022-10-30T03:27:23.701Z,1010.15
2022-10-30T03:28:23.706Z,1010.16
2022-10-30T03:29:23.691Z,1010.17
2022-10-30T03:30:23.671Z,1010.15
2022-10-30T03:31:23.659Z,1010.17
2022-10-30T03:33:23.632Z,1010.16
2022-10-30T03:34:23.619Z,1010.16
2022-10-30T03:35:23.624Z,1010.16
2022-10-30T03:36:23.600Z,1010.15
2022-10-30T03:37:23.626Z,1010.15
2022-10-30T03:38:23.573Z,1010.13
2022-10-30T03:39:23.580Z,1010.17
2022-10-30T03:40:23.568Z,1010.14
2022-10-30T03:41:23.561Z,1010.16
2022-10-30T03:42:23.539Z,1010.19
2022-10-30T03:43:23.532Z,1010.21
2022-10-30T03:44:23.511Z,1010.19
2022-10-30T03:45:23.503Z,1010.21
2022-10-30T03:46:23.499Z,1010.20
2022-10-30T03:47:23.494Z,1010.23
2022-10-30T03:48:23.474Z,1010.23
2022-10-30T03:49:23.457Z,1010.24
2022-10-30T03:50:23.471Z,1010.21
2022-10-30T03:51:23.431Z,1010.21
2022-10-30T03:52:23.439Z,1010.22
2022-10-30T03:53:23.437Z,1010.27
2022-10-30T03:54:23.403Z,1010.25
2022-10-30T03:55:23.383Z,1010.27
2022-10-30T03:56:23.383Z,1010.24
2022-10-30T03:57:23.369Z,1010.27
2022-10-30T03:58:23.363Z,1010.30
2022-10-30T03:59:23.349Z,1010.21
2022-10-30T04:00:23.331Z,1010.26
2022-10-30T04:01:23.509Z,1010.24
2022-10-30T04:02:23.329Z,1010.20
2022-10-30T04:03:23.313Z,1010.19
2022-10-30T04:04:23.292Z,1010.21
2022-10-30T04:05:23.281Z,1010.18
2022-10-30T04:06:23.276Z,1010.19
2022-10-30T04:07:23.260Z,1010.18
2022-10-30T04:08:23.262Z,1010.16
2022-10-30T04:09:23.264Z,1010.17
2022-10-30T04:10:24.070Z,1010.17
2022-10-30T04:11:23.279Z,1010.18
2022-10-30T04:12:23.206Z,1010.13
2022-10-30T04:13:23.182Z,1010.21
2022-10-30T04:14:23.231Z,1010.19
2022-10-30T04:15:23.161Z,1010.22
2022-10-30T04:16:23.151Z,1010.21
2022-10-30T04:17:23.150Z,1010.21
2022-10-30T04:18:23.180Z,1010.22
2022-10-30T04:19:23.116Z,1010.27
2022-10-30T04:20:23.120Z,1010.27
2022-10-30T04:21:23.104Z,1010.25
2022-10-30T04:22:23.097Z,1010.24
2022-10-30T04:23:23.079Z,1010.24
2022-10-30T04:24:23.078Z,1010.17
2022-10-30T04:25:23.084Z,1010.23
2022-10-30T04:26:23.037Z,1010.23
2022-10-30T04:27:23.025Z,1010.23
2022-10-30T04:28:23.023Z,1010.21
2022-10-30T04:29:23.006Z,1010.22
2022-10-30T04:30:22.998Z,1010.25
2022-10-30T04:31:22.993Z,1010.29
2022-10-30T04:32:22.970Z,1010.24
2022-10-30T04:33:22.981Z,1010.26
2022-10-30T04:34:22.957Z,1010.28
2022-10-30T04:35:22.944Z,1010.32
2022-10-30T04:36:22.940Z,1010.28
2022-10-30T04:37:22.912Z,1010.34
2022-10-30T04:38:22.902Z,1010.32
2022-10-30T04:39:22.908Z,1010.34
2022-10-30T04:40:22.885Z,1010.31
2022-10-30T04:41:22.897Z,1010.27
2022-10-30T04:42:22.860Z,1010.30
2022-10-30T04:43:22.851Z,1010.32
2022-10-30T04:44:22.842Z,1010.30
2022-10-30T04:45:22.849Z,1010.29
2022-10-30T04:46:22.820Z,1010.30
2022-10-30T04:47:22.912Z,1010.27
2022-10-30T04:48:22.807Z,1010.29
2022-10-30T04:49:22.779Z,1010.27
2022-10-30T04:50:22.786Z,1010.22
2022-10-30T04:51:22.758Z,1010.25
2022-10-30T04:52:22.750Z,1010.26
2022-10-30T04:53:22.744Z,1010.29
2022-10-30T04:54:22.729Z,1010.29
2022-10-30T04:55:22.709Z,1010.27
2022-10-30T04:56:22.724Z,1010.25
2022-10-30T04:57:22.724Z,1010.23
2022-10-30T04:58:22.689Z,1010.22
2022-10-30T04:59:22.669Z,1010.20
2022-10-30T05:00:22.659Z,1010.24
2022-10-30T05:01:22.769Z,1010.25
2022-10-30T05:02:22.890Z,1010.26
2022-10-30T05:03:22.637Z,1010.26
2022-10-30T05:04:22.613Z,1010.24
2022-10-30T05:05:22.603Z,1010.23
2022-10-30T05:06:22.593Z,1010.18
2022-10-30T05:07:22.576Z,1010.18
2022-10-30T05:08:22.569Z,1010.20
2022-10-30T05:09:22.553Z,1010.18
2022-10-30T05:10:22.548Z,1010.20
2022-10-30T05:11:22.535Z,1010.15
2022-10-30T05:12:22.532Z,1010.18
2022-10-30T05:13:22.537Z,1010.19
2022-10-30T05:14:22.513Z,1010.19
2022-10-30T05:15:22.491Z,1010.18
2022-10-30T05:16:22.492Z,1010.21
2022-10-30T05:17:22.514Z,1010.23
2022-10-30T05:18:22.470Z,1010.22
2022-10-30T05:19:22.440Z,1010.21
2022-10-30T05:20:22.462Z,1010.23
2022-10-30T05:21:22.416Z,1010.21
2022-10-30T05:22:22.408Z,1010.17
2022-10-30T05:23:22.408Z,1010.20
2022-10-30T05:24:22.382Z,1010.17
2022-10-30T05:25:22.374Z,1010.17
2022-10-30T05:26:22.367Z,1010.13
2022-10-30T05:27:22.363Z,1010.14
2022-10-30T05:28:22.353Z,1010.10
2022-10-30T05:29:22.349Z,1010.05
2022-10-30T05:30:22.321Z,1010.06
2022-10-30T05:31:22.314Z,1009.95
2022-10-30T05:32:22.293Z,1010.00
2022-10-30T05:33:23.400Z,1010.03
2022-10-30T05:34:22.275Z,1010.00
2022-10-30T05:35:22.278Z,1009.99
2022-10-30T05:36:22.256Z,1009.97
2022-10-30T05:37:22.257Z,1009.95
2022-10-30T05:38:22.226Z,1009.99
2022-10-30T05:39:22.213Z,1009.99
2022-10-30T05:40:22.208Z,1009.98
2022-10-30T05:41:22.195Z,1009.98
2022-10-30T05:42:22.180Z,1009.99
2022-10-30T05:43:22.168Z,1009.97
2022-10-30T05:44:34.639Z,1009.97
2022-10-30T05:45:23.174Z,1009.97
2022-10-30T05:46:22.139Z,1010.00
2022-10-30T05:47:22.129Z,1009.99
2022-10-30T05:48:22.119Z,1009.99
2022-10-30T05:49:22.103Z,1009.99
2022-10-30T05:50:22.115Z,1010.02
2022-10-30T05:51:22.088Z,1010.00
2022-10-30T05:52:22.078Z,1009.95
2022-10-30T05:53:22.058Z,1009.95
2022-10-30T05:54:22.044Z,1009.92
2022-10-30T05:55:22.046Z,1009.87
2022-10-30T05:56:22.028Z,1009.88
2022-10-30T05:57:22.009Z,1009.89
2022-10-30T05:58:22.003Z,1009.89
2022-10-30T05:59:21.990Z,1009.91
2022-10-30T06:00:21.976Z,1009.88
2022-10-30T06:01:22.107Z,1009.89
2022-10-30T06:02:22.036Z,1009.90
2022-10-30T06:03:21.980Z,1009.84
2022-10-30T06:04:21.937Z,1009.87
2022-10-30T06:05:21.926Z,1009.86
2022-10-30T06:06:21.936Z,1009.86
2022-10-30T06:07:21.914Z,1009.86
2022-10-30T06:08:21.908Z,1009.83
2022-10-30T06:09:21.874Z,1009.90
2022-10-30T06:10:21.864Z,1009.87
2022-10-30T06:11:21.871Z,1009.87
2022-10-30T06:12:21.852Z,1009.91
2022-10-30T06:13:21.839Z,1009.89
2022-10-30T06:14:21.832Z,1009.88
2022-10-30T06:15:21.817Z,1009.90
2022-10-30T06:16:21.843Z,1009.91
2022-10-30T06:17:21.815Z,1009.94
2022-10-30T06:18:21.773Z,1009.90
2022-10-30T06:19:21.795Z,1009.89
2022-10-30T06:20:21.760Z,1009.93
2022-10-30T06:21:21.754Z,1009.86
2022-10-30T06:22:21.737Z,1009.86
2022-10-30T06:23:21.723Z,1009.88
2022-10-30T06:24:21.734Z,1009.87
2022-10-30T06:25:21.696Z,1009.85
2022-10-30T06:26:21.693Z,1009.91
2022-10-30T06:27:21.701Z,1009.86
2022-10-30T06:28:21.661Z,1009.85
2022-10-30T06:29:21.672Z,1009.86
2022-10-30T06:30:21.660Z,1009.86
2022-10-30T06:32:21.617Z,1009.89
2022-10-30T06:33:21.650Z,1009.91
2022-10-30T06:34:21.595Z,1009.92
2022-10-30T06:35:21.589Z,1009.94
2022-10-30T06:36:21.574Z,1009.90
2022-10-30T06:37:21.665Z,1009.91
2022-10-30T06:38:21.573Z,1009.89
2022-10-30T06:39:21.545Z,1009.88
2022-10-30T06:40:21.548Z,1009.87
2022-10-30T06:41:25.904Z,1009.85
2022-10-30T06:42:22.521Z,1009.83
2022-10-30T06:43:21.503Z,1009.86
2022-10-30T06:44:21.492Z,1009.88
2022-10-30T06:45:21.479Z,1009.85
2022-10-30T06:46:21.460Z,1009.92
2022-10-30T06:47:21.483Z,1009.88
2022-10-30T06:48:21.464Z,1009.89
2022-10-30T06:49:21.455Z,1009.89
2022-10-30T06:50:21.422Z,1009.86
2022-10-30T06:51:21.412Z,1009.84
2022-10-30T06:52:21.407Z,1009.87
2022-10-30T06:53:21.387Z,1009.85
2022-10-30T06:54:21.383Z,1009.88
2022-10-30T06:55:21.369Z,1009.86
2022-10-30T06:56:21.363Z,1009.88
2022-10-30T06:57:21.345Z,1009.94
2022-10-30T06:58:21.330Z,1009.92
2022-10-30T06:59:21.320Z,1009.94
2022-10-30T07:00:21.312Z,1009.91
2022-10-30T07:01:21.324Z,1009.90
2022-10-30T07:02:21.385Z,1009.89
2022-10-30T07:03:21.273Z,1009.88
2022-10-30T07:04:21.294Z,1009.94
2022-10-30T07:05:21.269Z,1009.92
2022-10-30T07:06:21.249Z,1009.91
2022-10-30T07:07:21.235Z,1009.91
2022-10-30T07:08:21.230Z,1009.90
2022-10-30T07:09:21.201Z,1009.86
2022-10-30T07:10:21.211Z,1009.90
2022-10-30T07:11:21.189Z,1009.90
2022-10-30T07:12:21.167Z,1009.91
2022-10-30T07:13:21.162Z,1009.94
2022-10-30T07:14:21.158Z,1009.92
2022-10-30T07:15:21.137Z,1009.97
2022-10-30T07:16:21.129Z,1009.94
2022-10-30T07:17:21.190Z,1009.95
2022-10-30T07:18:21.104Z,1009.98
2022-10-30T07:19:21.105Z,1009.93
2022-10-30T07:20:21.112Z,1009.93
2022-10-30T07:21:21.093Z,1009.95
2022-10-30T07:22:21.060Z,1009.98
2022-10-30T07:23:21.044Z,1010.06
2022-10-30T07:24:21.055Z,1010.08
2022-10-30T07:25:21.032Z,1010.04
2022-10-30T07:26:21.023Z,1010.11
2022-10-30T07:27:21.002Z,1010.11
2022-10-30T07:28:20.996Z,1010.15
2022-10-30T07:29:20.977Z,1010.15
2022-10-30T07:30:21.062Z,1010.15
2022-10-30T07:31:34.791Z,1010.13
2022-10-30T07:32:21.945Z,1010.11
2022-10-30T07:33:20.928Z,1010.09
2022-10-30T07:34:20.920Z,1010.12
2022-10-30T07:35:20.905Z,1010.10
2022-10-30T07:36:20.911Z,1010.08
2022-10-30T07:37:20.912Z,1010.10
2022-10-30T07:38:20.878Z,1010.12
2022-10-30T07:39:20.863Z,1010.15
2022-10-30T07:40:20.859Z,1010.13
2022-10-30T07:41:20.841Z,1010.13
2022-10-30T07:42:20.852Z,1010.17
2022-10-30T07:43:20.824Z,1010.18
2022-10-30T07:44:20.807Z,1010.17
2022-10-30T07:45:22.280Z,1010.18
2022-10-30T07:46:20.815Z,1010.18
2022-10-30T07:47:20.771Z,1010.17
2022-10-30T07:48:20.767Z,1010.18
2022-10-30T07:49:20.766Z,1010.16
2022-10-30T07:50:20.742Z,1010.17
2022-10-30T07:51:20.745Z,1010.15
2022-10-30T07:52:20.717Z,1010.16
2022-10-30T07:53:20.743Z,1010.11
2022-10-30T07:54:20.705Z,1010.08
2022-10-30T07:55:20.680Z,1010.09
2022-10-30T07:56:20.676Z,1010.15
2022-10-30T07:57:20.665Z,1010.13
2022-10-30T07:58:20.654Z,1010.13
2022-10-30T07:59:20.638Z,1010.11
2022-10-30T08:00:20.657Z,1010.12
2022-10-30T08:01:20.737Z,1010.20
2022-10-30T08:02:20.829Z,1010.16
2022-10-30T08:03:20.589Z,1010.19
2022-10-30T08:04:20.588Z,1010.20
2022-10-30T08:05:23.254Z,1010.17
2022-10-30T08:06:24.643Z,1010.22
2022-10-30T08:07:21.546Z,1010.25
2022-10-30T08:08:20.550Z,1010.23
2022-10-30T08:09:20.561Z,1010.21
2022-10-30T08:10:20.515Z,1010.21
2022-10-30T08:11:20.508Z,1010.17
2022-10-30T08:12:20.490Z,1010.21
2022-10-30T08:13:20.479Z,1010.17
2022-10-30T08:14:20.484Z,1010.22
2022-10-30T08:15:20.479Z,1010.20
2022-10-30T08:16:20.446Z,1010.18
2022-10-30T08:17:20.442Z,1010.16
2022-10-30T08:18:20.432Z,1010.14
2022-10-30T08:19:20.425Z,1010.18
2022-10-30T08:20:20.412Z,1010.18
2022-10-30T08:21:20.397Z,1010.20
2022-10-30T08:22:20.381Z,1010.17
2022-10-30T08:23:20.379Z,1010.17
2022-10-30T08:24:20.363Z,1010.20
2022-10-30T08:25:20.381Z,1010.18
2022-10-30T08:26:20.352Z,1010.22
2022-10-30T08:27:20.326Z,1010.21
2022-10-30T08:28:20.320Z,1010.18
2022-10-30T08:29:20.306Z,1010.18
2022-10-30T08:30:20.300Z,1010.18
2022-10-30T08:31:20.300Z,1010.17
2022-10-30T08:32:20.275Z,1010.11
2022-10-30T08:33:20.262Z,1010.12
2022-10-30T08:34:20.248Z,1010.15
2022-10-30T08:35:20.463Z,1010.14
2022-10-30T08:36:20.230Z,1010.17
2022-10-30T08:37:20.221Z,1010.15
2022-10-30T08:38:20.208Z,1010.16
2022-10-30T08:39:20.216Z,1010.11
2022-10-30T08:40:20.187Z,1010.15
2022-10-30T08:41:20.223Z,1010.16
2022-10-30T08:42:20.164Z,1010.15
2022-10-30T08:43:20.148Z,1010.13
2022-10-30T08:44:20.140Z,1010.12
2022-10-30T08:45:20.133Z,1010.11
2022-10-30T08:46:20.111Z,1010.07
2022-10-30T08:47:20.118Z,1010.09
2022-10-30T08:48:20.088Z,1010.13
2022-10-30T08:49:20.077Z,1010.11
2022-10-30T08:51:20.061Z,1010.05
2022-10-30T08:52:20.050Z,1009.99
2022-10-30T08:53:20.067Z,1010.01
2022-10-30T08:54:20.031Z,1009.96
2022-10-30T08:55:20.014Z,1009.98
2022-10-30T08:56:20.003Z,1009.95
2022-10-30T08:57:20.024Z,1009.96
2022-10-30T08:58:19.985Z,1009.97
2022-10-30T08:59:21.434Z,1009.95
2022-10-30T09:00:19.955Z,1009.93
2022-10-30T09:01:20.133Z,1009.95
2022-10-30T09:02:20.155Z,1009.90
2022-10-30T09:03:19.929Z,1009.94
2022-10-30T09:04:19.921Z,1009.95
2022-10-30T09:05:19.911Z,1009.96
2022-10-30T09:06:19.897Z,1009.92
2022-10-30T09:07:19.887Z,1009.91
2022-10-30T09:08:19.873Z,1009.93
2022-10-30T09:09:19.860Z,1009.93
2022-10-30T09:10:19.862Z,1009.88
2022-10-30T09:11:19.848Z,1009.96
2022-10-30T09:12:19.828Z,1009.96
2022-10-30T09:13:19.834Z,1009.94
2022-10-30T09:14:19.814Z,1009.97
2022-10-30T09:15:19.793Z,1009.92
2022-10-30T09:16:19.779Z,1009.91
2022-10-30T09:17:19.787Z,1009.93
2022-10-30T09:18:19.765Z,1009.94
2022-10-30T09:19:19.761Z,1009.97
2022-10-30T09:20:19.739Z,1009.95
2022-10-30T09:21:19.724Z,1009.99
2022-10-30T09:22:19.721Z,1009.92
2022-10-30T09:23:19.712Z,1009.93
2022-10-30T09:24:19.717Z,1009.92
2022-10-30T09:25:19.689Z,1009.92
2022-10-30T09:26:20.848Z,1009.88
2022-10-30T09:27:19.661Z,1009.84
2022-10-30T09:28:19.656Z,1009.91
2022-10-30T09:29:19.662Z,1009.86
2022-10-30T09:30:19.645Z,1009.88
2022-10-30T09:31:19.741Z,1009.82
2022-10-30T09:32:19.606Z,1009.82
2022-10-30T09:33:19.605Z,1009.81
2022-10-30T09:34:19.618Z,1009.81
2022-10-30T09:35:19.582Z,1009.80
2022-10-30T09:36:22.175Z,1009.79
2022-10-30T09:37:19.550Z,1009.81
2022-10-30T09:38:19.541Z,1009.78
2022-10-30T09:39:19.539Z,1009.75
2022-10-30T09:40:19.518Z,1009.75
2022-10-30T09:41:19.602Z,1009.68
2022-10-30T09:42:19.505Z,1009.71
2022-10-30T09:43:19.490Z,1009.67
2022-10-30T09:44:19.483Z,1009.72
2022-10-30T09:45:34.990Z,1009.77
2022-10-30T09:46:20.456Z,1009.77
2022-10-30T09:47:23.315Z,1009.77
2022-10-30T09:48:19.440Z,1009.70
2022-10-30T09:49:19.432Z,1009.72
2022-10-30T09:50:19.411Z,1009.68
2022-10-30T09:51:19.459Z,1009.67
2022-10-30T09:52:19.392Z,1009.63
2022-10-30T09:53:19.376Z,1009.62
2022-10-30T09:54:19.366Z,1009.56
2022-10-30T09:55:19.354Z,1009.58
2022-10-30T09:56:19.436Z,1009.57
2022-10-30T09:57:19.339Z,1009.61
2022-10-30T09:58:19.329Z,1009.53
2022-10-30T09:59:19.303Z,1009.55
2022-10-30T10:00:19.290Z,1009.52
2022-10-30T10:01:19.520Z,1009.55
2022-10-30T10:02:19.398Z,1009.51
2022-10-30T10:03:19.274Z,1009.50
2022-10-30T10:04:22.287Z,1009.53
2022-10-30T10:05:20.245Z,1009.48
2022-10-30T10:06:19.286Z,1009.47
2022-10-30T10:07:19.223Z,1009.43
2022-10-30T10:08:19.221Z,1009.37
2022-10-30T10:09:19.217Z,1009.38
2022-10-30T10:10:19.305Z,1009.37
2022-10-30T10:11:19.220Z,1009.37
2022-10-30T10:12:19.179Z,1009.38
2022-10-30T10:13:19.151Z,1009.37
2022-10-30T10:14:19.134Z,1009.40
2022-10-30T10:15:19.141Z,1009.37
2022-10-30T10:16:19.132Z,1009.34
2022-10-30T10:17:19.147Z,1009.35
2022-10-30T10:18:19.191Z,1009.41
2022-10-30T10:19:19.085Z,1009.40
2022-10-30T10:20:19.075Z,1009.38
2022-10-30T10:21:19.148Z,1009.46
2022-10-30T10:22:19.050Z,1009.41
2022-10-30T10:23:19.043Z,1009.43
2022-10-30T10:24:20.019Z,1009.40
2022-10-30T10:25:19.025Z,1009.46
2022-10-30T10:26:19.016Z,1009.42
2022-10-30T10:27:19.004Z,1009.36
2022-10-30T10:28:18.989Z,1009.41
2022-10-30T10:29:18.973Z,1009.42
2022-10-30T10:30:18.960Z,1009.40
2022-10-30T10:31:18.961Z,1009.36
2022-10-30T10:32:18.939Z,1009.39
2022-10-30T10:33:19.019Z,1009.39
2022-10-30T10:34:18.915Z,1009.39
2022-10-30T10:35:18.907Z,1009.40
2022-10-30T10:36:18.897Z,1009.39
2022-10-30T10:37:18.889Z,1009.42
2022-10-30T10:38:18.871Z,1009.37
2022-10-30T10:39:18.864Z,1009.41
2022-10-30T10:40:18.859Z,1009.42
2022-10-30T10:41:18.898Z,1009.38
2022-10-30T10:42:18.827Z,1009.39
2022-10-30T10:43:18.824Z,1009.43
2022-10-30T10:44:18.804Z,1009.38
2022-10-30T10:45:18.805Z,1009.35
2022-10-30T10:46:18.788Z,1009.37
2022-10-30T10:47:18.800Z,1009.37
2022-10-30T10:48:18.769Z,1009.41
2022-10-30T10:49:18.769Z,1009.42
2022-10-30T10:50:18.743Z,1009.36
2022-10-30T10:51:18.736Z,1009.42
2022-10-30T10:52:18.725Z,1009.36
2022-10-30T10:53:18.709Z,1009.42
2022-10-30T10:54:18.706Z,1009.42
2022-10-30T10:55:18.683Z,1009.46
2022-10-30T10:56:18.676Z,1009.41
2022-10-30T10:57:18.671Z,1009.40
2022-10-30T10:58:18.658Z,1009.47
2022-10-30T10:59:18.667Z,1009.44
2022-10-30T11:00:18.638Z,1009.43
2022-10-30T11:01:18.831Z,1009.46
2022-10-30T11:02:18.768Z,1009.42
2022-10-30T11:03:18.610Z,1009.42
2022-10-30T11:04:18.597Z,1009.39
2022-10-30T11:05:18.609Z,1009.41
2022-10-30T11:06:18.574Z,1009.36
2022-10-30T11:07:18.554Z,1009.37
2022-10-30T11:08:18.559Z,1009.39
2022-10-30T11:09:18.537Z,1009.41
2022-10-30T11:10:18.528Z,1009.44
2022-10-30T11:11:18.516Z,1009.47
2022-10-30T11:12:18.496Z,1009.43
2022-10-30T11:13:18.488Z,1009.45
2022-10-30T11:14:18.495Z,1009.44
2022-10-30T11:15:18.480Z,1009.46
2022-10-30T11:16:18.478Z,1009.41
2022-10-30T11:17:18.451Z,1009.46
2022-10-30T11:18:18.452Z,1009.37
2022-10-30T11:19:18.424Z,1009.29
2022-10-30T11:20:18.415Z,1009.36
2022-10-30T11:21:18.431Z,1009.37
2022-10-30T11:22:18.407Z,1009.26
2022-10-30T11:23:18.391Z,1009.32
2022-10-30T11:24:18.400Z,1009.28
2022-10-30T11:25:18.357Z,1009.29
2022-10-30T11:26:18.365Z,1009.24
2022-10-30T11:27:18.335Z,1009.28
2022-10-30T11:28:18.338Z,1009.24
2022-10-30T11:29:18.325Z,1009.24
2022-10-30T11:30:18.453Z,1009.22
2022-10-30T11:31:18.301Z,1009.25
2022-10-30T11:32:18.304Z,1009.30
2022-10-30T11:33:18.280Z,1009.27
2022-10-30T11:34:18.272Z,1009.27
2022-10-30T11:35:18.250Z,1009.23
2022-10-30T11:36:18.245Z,1009.21
2022-10-30T11:37:18.272Z,1009.16
2022-10-30T11:38:18.225Z,1009.18
2022-10-30T11:39:18.221Z,1009.24
2022-10-30T11:40:18.204Z,1009.17
2022-10-30T11:41:18.189Z,1009.18
2022-10-30T11:42:18.185Z,1009.18
2022-10-30T11:43:18.177Z,1009.15
2022-10-30T11:44:18.149Z,1009.15
2022-10-30T11:45:18.156Z,1009.17
2022-10-30T11:46:18.146Z,1009.15
2022-10-30T11:47:18.125Z,1009.17
2022-10-30T11:48:18.589Z,1009.04
2022-10-30T11:49:18.104Z,1009.08
2022-10-30T11:50:18.120Z,1009.13
2022-10-30T11:51:18.148Z,1009.13
2022-10-30T11:52:18.085Z,1009.06
2022-10-30T11:53:18.085Z,1009.03
2022-10-30T11:54:18.055Z,1009.06
2022-10-30T11:55:18.032Z,1009.06
2022-10-30T11:56:18.032Z,1009.11
2022-10-30T11:57:18.020Z,1009.14
2022-10-30T11:58:17.995Z,1009.11
2022-10-30T11:59:17.992Z,1009.13
2022-10-30T12:00:18.102Z,1009.10
2022-10-30T12:01:18.004Z,1009.10
2022-10-30T12:02:18.152Z,1008.97
2022-10-30T12:03:17.944Z,1008.91
2022-10-30T12:04:17.928Z,1008.95
2022-10-30T12:05:17.944Z,1008.92
2022-10-30T12:06:17.915Z,1008.95
2022-10-30T12:07:17.895Z,1008.93
2022-10-30T12:08:17.892Z,1008.93